Back to Top

Language: 

My Weather Underground Personal Weather Station Historical Data with Graphs...

Delerius Weather Station Historical Data
Daily Summary for May 21, 2017 Units:  Metric    English   Both
« Previous Day
Next Day »
Daily Weekly Monthly Yearly Custom
  High: Low: Average:
Temperature: 18.3 °C 6.6 °C 13.1 °C
Dew Point: 10.2 °C 5.4 °C 8.3 °C
Humidity: 93 % 54 % 74 %
Wind Speed: 20.9 km/h 0 km/h 9.2 km/h
Wind Gust: 35.4 km/h - -
Wind:- - SSW
Pressure: 1022.2 hPa 1019.2 hPa -
Precipitation: 0 mm    
Historical Graphs
 
 
Tabular Data for May 21, 2017
Time Temperature Dew Point Pressure Wind Wind Speed Wind Gust Humidity Rainfall Rate (Hourly) solar Conditions
00:01 7.1 °C 5.9 °C 1019.2 hPa Calm   3.2 km/h 92 % 0 mm 0 W/m2
00:06 7.2 °C 6.2 °C 1019.2 hPa Calm   3.2 km/h 93 % 0 mm 0 W/m2
00:11 7.2 °C 6 °C 1019.5 hPa Calm   3.2 km/h 92 % 0 mm 0 W/m2
00:16 7.2 °C 6 °C 1019.5 hPa Calm   1.6 km/h 92 % 0 mm 0 W/m2
00:21 7.1 °C 5.9 °C 1019.5 hPa Calm   1.6 km/h 92 % 0 mm 0 W/m2
00:26 7.1 °C 5.7 °C 1019.5 hPa Calm     91 % 0 mm 0 W/m2
00:31 7 °C 5.6 °C 1019.5 hPa Calm     91 % 0 mm 0 W/m2
00:36 6.9 °C 5.6 °C 1019.5 hPa Calm     91 % 0 mm 0 W/m2
00:41 6.8 °C 5.6 °C 1019.5 hPa Calm   1.6 km/h 92 % 0 mm 0 W/m2
00:46 6.8 °C 5.6 °C 1019.9 hPa Calm   1.6 km/h 92 % 0 mm 0 W/m2
00:51 6.8 °C 5.6 °C 1019.9 hPa Calm     92 % 0 mm 0 W/m2
00:56 6.8 °C 5.6 °C 1019.9 hPa Calm   3.2 km/h 92 % 0 mm 0 W/m2
01:01 6.7 °C 5.5 °C 1019.9 hPa Calm   3.2 km/h 92 % 0 mm 0 W/m2
01:07 6.7 °C 5.5 °C 1019.9 hPa Calm   3.2 km/h 92 % 0 mm 0 W/m2
01:12 6.7 °C 5.5 °C 1019.9 hPa Calm   1.6 km/h 92 % 0 mm 0 W/m2
01:17 6.6 °C 5.4 °C 1019.9 hPa Calm   3.2 km/h 92 % 0 mm 0 W/m2
01:22 6.6 °C 5.6 °C 1019.9 hPa SW 1.6 km/h 12.9 km/h 93 % 0 mm 0 W/m2
01:27 6.8 °C 5.7 °C 1019.9 hPa SW 4.8 km/h 12.9 km/h 93 % 0 mm 0 W/m2
01:32 7.2 °C 6.2 °C 1019.9 hPa SW 8 km/h 16.1 km/h 93 % 0 mm 0 W/m2
01:37 7.7 °C 6.7 °C 1019.9 hPa SW 9.7 km/h 17.7 km/h 93 % 0 mm 0 W/m2
01:42 8.1 °C 6.7 °C 1019.9 hPa SW 11.3 km/h 19.3 km/h 91 % 0 mm 0 W/m2
01:47 8.3 °C 6.6 °C 1019.9 hPa SW 11.3 km/h 19.3 km/h 89 % 0 mm 0 W/m2
01:52 8.4 °C 6.5 °C 1019.9 hPa SW 8 km/h 16.1 km/h 88 % 0 mm 0 W/m2
01:57 8.3 °C 6.4 °C 1019.9 hPa SSW 3.2 km/h 12.9 km/h 88 % 0 mm 0 W/m2
02:02 8.2 °C 6.3 °C 1019.9 hPa SSW 6.4 km/h 16.1 km/h 88 % 0 mm 0 W/m2
02:07 8.2 °C 6.5 °C 1019.9 hPa SSW 9.7 km/h 16.1 km/h 89 % 0 mm 0 W/m2
02:12 8.2 °C 6.3 °C 1019.9 hPa SSW 9.7 km/h 16.1 km/h 88 % 0 mm 0 W/m2
02:17 8.2 °C 6.3 °C 1019.9 hPa SSW 11.3 km/h 16.1 km/h 88 % 0 mm 0 W/m2
02:22 8.3 °C 6.4 °C 1019.9 hPa SW 11.3 km/h 17.7 km/h 88 % 0 mm 0 W/m2
02:23 8.3 °C 6.4 °C 1019.9 hPa SW 11.3 km/h 17.7 km/h 88 % 0 mm 0 W/m2
02:28 8.4 °C 6.5 °C 1019.9 hPa SW 11.3 km/h 17.7 km/h 88 % 0 mm 0 W/m2
02:33 8.4 °C 6.5 °C 1019.9 hPa SW 11.3 km/h 17.7 km/h 88 % 0 mm 0 W/m2
02:38 8.6 °C 6.7 °C 1020.2 hPa SW 11.3 km/h 17.7 km/h 88 % 0 mm 0 W/m2
02:43 8.7 °C 6.7 °C 1020.2 hPa SW 11.3 km/h 17.7 km/h 87 % 0 mm 0 W/m2
02:48 8.7 °C 6.7 °C 1020.2 hPa SW 11.3 km/h 20.9 km/h 87 % 0 mm 0 W/m2
02:53 8.8 °C 6.8 °C 1020.2 hPa SW 12.9 km/h 20.9 km/h 87 % 0 mm 0 W/m2
02:58 8.8 °C 6.8 °C 1020.2 hPa SW 12.9 km/h 19.3 km/h 87 % 0 mm 0 W/m2
03:03 8.8 °C 6.8 °C 1020.2 hPa SW 11.3 km/h 16.1 km/h 87 % 0 mm 0 W/m2
03:08 8.8 °C 6.8 °C 1020.2 hPa SSW 9.7 km/h 16.1 km/h 87 % 0 mm 0 W/m2
03:13 8.8 °C 6.8 °C 1020.2 hPa SSW 9.7 km/h 16.1 km/h 87 % 0 mm 0 W/m2
03:18 8.8 °C 6.8 °C 1020.2 hPa SSW 8 km/h 16.1 km/h 87 % 0 mm 0 W/m2
03:23 8.8 °C 6.9 °C 1020.2 hPa SSW 6.4 km/h 14.5 km/h 88 % 0 mm 0 W/m2
03:28 8.7 °C 6.8 °C 1020.2 hPa SSW 3.2 km/h 12.9 km/h 88 % 0 mm 0 W/m2
03:33 8.7 °C 6.8 °C 1020.2 hPa SSW 3.2 km/h 12.9 km/h 88 % 0 mm 0 W/m2
03:38 8.7 °C 6.8 °C 1020.2 hPa South 4.8 km/h 12.9 km/h 88 % 0 mm 0 W/m2
03:43 8.7 °C 6.8 °C 1020.2 hPa South 4.8 km/h 12.9 km/h 88 % 0 mm 0 W/m2
03:48 8.6 °C 6.7 °C 1020.2 hPa South 3.2 km/h 11.3 km/h 88 % 0 mm 0 W/m2
03:53 8.6 °C 6.7 °C 1020.2 hPa South 1.6 km/h 8 km/h 88 % 0 mm 0 W/m2
03:59 8.4 °C 6.5 °C 1020.2 hPa Calm   6.4 km/h 88 % 0 mm 0 W/m2
04:04 8.2 °C 6.3 °C 1020.2 hPa Calm   3.2 km/h 88 % 0 mm 0 W/m2
04:09 8.1 °C 6.4 °C 1020.2 hPa South 1.6 km/h 8 km/h 89 % 0 mm 0 W/m2
04:14 7.9 °C 6.2 °C 1020.2 hPa South 1.6 km/h 8 km/h 89 % 0 mm 0 W/m2
04:19 7.8 °C 6.3 °C 1020.2 hPa South 1.6 km/h 6.4 km/h 90 % 0 mm 0 W/m2
04:24 7.7 °C 6.2 °C 1020.2 hPa South 1.6 km/h 6.4 km/h 90 % 0 mm 0 W/m2
04:29 7.7 °C 6.2 °C 1020.2 hPa South 3.2 km/h 6.4 km/h 90 % 0 mm 0 W/m2
04:34 7.7 °C 6.2 °C 1020.2 hPa South 3.2 km/h 6.4 km/h 90 % 0 mm 0 W/m2
04:38 7.6 °C 6.2 °C 1020.2 hPa South 1.6 km/h 8 km/h 91 % 0 mm 0 W/m2
04:43 7.6 °C 6.2 °C 1020.2 hPa South 3.2 km/h 9.7 km/h 91 % 0 mm 0 W/m2
04:49 7.6 °C 6.2 °C 1020.2 hPa SSE 3.2 km/h 9.7 km/h 91 % 0 mm 0 W/m2
04:54 7.6 °C 6.4 °C 1020.5 hPa ESE 4.8 km/h 9.7 km/h 92 % 0 mm 0 W/m2
04:59 7.7 °C 6.3 °C 1020.5 hPa ESE 4.8 km/h 11.3 km/h 91 % 0 mm 5 W/m2
05:04 7.7 °C 6.3 °C 1020.5 hPa SE 4.8 km/h 11.3 km/h 91 % 0 mm 7 W/m2
05:09 7.7 °C 6.3 °C 1020.5 hPa SE 6.4 km/h 12.9 km/h 91 % 0 mm 9 W/m2
05:14 7.8 °C 6.4 °C 1020.5 hPa SSE 8 km/h 12.9 km/h 91 % 0 mm 12 W/m2
05:19 7.8 °C 6.4 °C 1020.5 hPa SSE 8 km/h 12.9 km/h 91 % 0 mm 16 W/m2
05:21 7.8 °C 6.4 °C 1020.5 hPa SSE 8 km/h 17.7 km/h 91 % 0 mm 18 W/m2
05:26 8 °C 6.6 °C 1020.9 hPa SSE 9.7 km/h 17.7 km/h 91 % 0 mm 19 W/m2
05:31 8.1 °C 6.6 °C 1020.9 hPa SSE 6.4 km/h 14.5 km/h 90 % 0 mm 21 W/m2
05:36 8.1 °C 6.6 °C 1020.9 hPa SSE 3.2 km/h 11.3 km/h 90 % 0 mm 21 W/m2
05:41 8 °C 6.4 °C 1020.9 hPa Calm   6.4 km/h 90 % 0 mm 25 W/m2
05:46 7.9 °C 6.3 °C 1020.9 hPa Calm   3.2 km/h 90 % 0 mm 26 W/m2
05:56 8.1 °C 6.7 °C 1020.9 hPa SW 8 km/h 17.7 km/h 91 % 0 mm 37 W/m2
06:01 8.2 °C 6.8 °C 1020.9 hPa SW 8 km/h 17.7 km/h 91 % 0 mm 40 W/m2
06:06 8.3 °C 6.8 °C 1020.9 hPa SW 11.3 km/h 25.7 km/h 90 % 0 mm 47 W/m2
06:11 8.4 °C 6.8 °C 1020.9 hPa SW 12.9 km/h 25.7 km/h 90 % 0 mm 49 W/m2
06:16 8.5 °C 6.8 °C 1021.2 hPa SW 11.3 km/h 20.9 km/h 89 % 0 mm 47 W/m2
06:21 8.6 °C 6.9 °C 1021.2 hPa SW 11.3 km/h 20.9 km/h 89 % 0 mm 49 W/m2
06:26 8.6 °C 6.9 °C 1021.2 hPa SW 11.3 km/h 17.7 km/h 89 % 0 mm 53 W/m2
06:31 8.6 °C 6.9 °C 1020.9 hPa SW 11.3 km/h 20.9 km/h 89 % 0 mm 46 W/m2
06:34 8.7 °C 7 °C 1020.9 hPa SW 11.3 km/h 20.9 km/h 89 % 0 mm 49 W/m2
06:39 8.7 °C 7 °C 1021.2 hPa SSW 11.3 km/h 20.9 km/h 89 % 0 mm 67 W/m2
06:44 8.8 °C 7.1 °C 1021.2 hPa SSW 11.3 km/h 20.9 km/h 89 % 0 mm 83 W/m2
06:49 8.9 °C 7.2 °C 1021.2 hPa SSW 11.3 km/h 17.7 km/h 89 % 0 mm 95 W/m2
06:54 9.1 °C 7.4 °C 1021.6 hPa SSW 11.3 km/h 17.7 km/h 89 % 0 mm 97 W/m2
06:59 9.2 °C 7.5 °C 1021.6 hPa SW 11.3 km/h 17.7 km/h 89 % 0 mm 98 W/m2
07:04 9.4 °C 7.7 °C 1021.6 hPa SW 12.9 km/h 19.3 km/h 89 % 0 mm 100 W/m2
07:09 9.7 °C 7.8 °C 1021.6 hPa SSW 11.3 km/h 20.9 km/h 88 % 0 mm 109 W/m2
07:14 9.8 °C 7.9 °C 1021.6 hPa SSW 9.7 km/h 20.9 km/h 88 % 0 mm 211 W/m2
07:19 10.1 °C 8.2 °C 1021.6 hPa SW 9.7 km/h 17.7 km/h 88 % 0 mm 141 W/m2
07:24 10.3 °C 8.2 °C 1021.6 hPa SSW 11.3 km/h 20.9 km/h 87 % 0 mm 244 W/m2
07:29 10.5 °C 8.4 °C 1021.6 hPa SSW 9.7 km/h 20.9 km/h 87 % 0 mm 288 W/m2
07:34 10.6 °C 8.2 °C 1021.6 hPa SSW 11.3 km/h 19.3 km/h 85 % 0 mm 248 W/m2
07:39 10.8 °C 8.4 °C 1021.9 hPa SSW 11.3 km/h 19.3 km/h 85 % 0 mm 258 W/m2
07:44 11 °C 8.6 °C 1021.9 hPa SSW 9.7 km/h 16.1 km/h 85 % 0 mm 360 W/m2
07:49 11.2 °C 8.8 °C 1021.9 hPa SSW 9.7 km/h 14.5 km/h 85 % 0 mm 332 W/m2
07:54 11.4 °C 8.8 °C 1021.9 hPa SSW 8 km/h 14.5 km/h 84 % 0 mm 316 W/m2
07:59 11.7 °C 9.1 °C 1021.9 hPa SW 8 km/h 17.7 km/h 84 % 0 mm 387 W/m2
08:04 11.9 °C 9.1 °C 1021.9 hPa SW 9.7 km/h 17.7 km/h 83 % 0 mm 220 W/m2
08:10 12.1 °C 9.1 °C 1021.9 hPa SW 9.7 km/h 17.7 km/h 82 % 0 mm 522 W/m2
08:15 12.3 °C 9.1 °C 1021.9 hPa SW 11.3 km/h 19.3 km/h 81 % 0 mm 258 W/m2
08:20 12.6 °C 9.4 °C 1021.9 hPa WSW 11.3 km/h 19.3 km/h 81 % 0 mm 225 W/m2
08:25 12.6 °C 9.2 °C 1021.9 hPa WSW 11.3 km/h 20.9 km/h 80 % 0 mm 207 W/m2
08:30 12.6 °C 9.2 °C 1022.2 hPa SW 11.3 km/h 20.9 km/h 80 % 0 mm 232 W/m2
08:35 12.5 °C 9.2 °C 1022.2 hPa SW 11.3 km/h 22.5 km/h 80 % 0 mm 229 W/m2
08:40 12.6 °C 9.2 °C 1022.2 hPa SW 11.3 km/h 22.5 km/h 80 % 0 mm 464 W/m2
08:45 12.8 °C 9.4 °C 1022.2 hPa WSW 9.7 km/h 17.7 km/h 80 % 0 mm 425 W/m2
08:50 13.1 °C 9.6 °C 1022.2 hPa WSW 11.3 km/h 17.7 km/h 79 % 0 mm 318 W/m2
08:55 13.2 °C 9.4 °C 1022.2 hPa SW 11.3 km/h 17.7 km/h 78 % 0 mm 397 W/m2
09:00 13.3 °C 9.6 °C 1022.2 hPa SW 9.7 km/h 17.7 km/h 78 % 0 mm 450 W/m2
09:05 13.5 °C 9.7 °C 1022.2 hPa SW 11.3 km/h 19.3 km/h 78 % 0 mm 496 W/m2
09:10 13.7 °C 9.7 °C 1022.2 hPa SW 11.3 km/h 22.5 km/h 77 % 0 mm 497 W/m2
09:15 13.8 °C 9.7 °C 1022.2 hPa SW 12.9 km/h 22.5 km/h 76 % 0 mm 473 W/m2
09:20 14 °C 9.8 °C 1022.2 hPa SW 11.3 km/h 19.3 km/h 76 % 0 mm 452 W/m2
09:25 14.3 °C 9.9 °C 1022.2 hPa SW 9.7 km/h 16.1 km/h 75 % 0 mm 506 W/m2
09:30 14.4 °C 9.8 °C 1022.2 hPa SSW 11.3 km/h 22.5 km/h 74 % 0 mm 394 W/m2
09:35 14.4 °C 9.6 °C 1022.2 hPa SSW 12.9 km/h 24.1 km/h 73 % 0 mm 338 W/m2
09:40 14.5 °C 9.7 °C 1022.2 hPa SSW 14.5 km/h 29 km/h 73 % 0 mm 570 W/m2
09:45 14.6 °C 9.8 °C 1022.2 hPa SSW 14.5 km/h 29 km/h 73 % 0 mm 571 W/m2
09:50 14.7 °C 9.9 °C 1022.2 hPa SSW 14.5 km/h 22.5 km/h 73 % 0 mm 657 W/m2
09:55 14.8 °C 10 °C 1022.2 hPa SSW 14.5 km/h 25.7 km/h 73 % 0 mm 659 W/m2
10:00 15.1 °C 10.1 °C 1022.2 hPa SSW 16.1 km/h 29 km/h 72 % 0 mm 705 W/m2
10:05 15.3 °C 9.8 °C 1022.2 hPa SSW 14.5 km/h 29 km/h 70 % 0 mm 708 W/m2
10:10 15.6 °C 10.2 °C 1022.2 hPa SSW 12.9 km/h 24.1 km/h 70 % 0 mm 698 W/m2
10:15 15.7 °C 9.8 °C 1022.2 hPa SW 12.9 km/h 24.1 km/h 68 % 0 mm 592 W/m2
10:20 15.9 °C 10.2 °C 1022.2 hPa SW 12.9 km/h 24.1 km/h 69 % 0 mm 682 W/m2
10:25 15.9 °C 9.8 °C 1022.2 hPa SW 14.5 km/h 24.1 km/h 67 % 0 mm 679 W/m2
10:30 16.1 °C 9.9 °C 1022.2 hPa SW 14.5 km/h 24.1 km/h 67 % 0 mm 722 W/m2
10:35 15.9 °C 9.6 °C 1022.2 hPa SW 16.1 km/h 32.2 km/h 66 % 0 mm 719 W/m2
10:41 15.8 °C 9.2 °C 1022.2 hPa SSW 19.3 km/h 35.4 km/h 65 % 0 mm 719 W/m2
10:46 15.7 °C 9.4 °C 1022.2 hPa SW 17.7 km/h 35.4 km/h 66 % 0 mm 838 W/m2
10:51 16.1 °C 9.7 °C 1022.2 hPa SW 12.9 km/h 29 km/h 66 % 0 mm 283 W/m2
10:56 15.9 °C 9.6 °C 1022.2 hPa SW 14.5 km/h 24.1 km/h 66 % 0 mm 253 W/m2
11:01 15.7 °C 9.4 °C 1022.2 hPa SSW 16.1 km/h 24.1 km/h 66 % 0 mm 367 W/m2
11:06 15.6 °C 9.5 °C 1022.2 hPa SSW 14.5 km/h 25.7 km/h 67 % 0 mm 239 W/m2
11:11 15.5 °C 9.4 °C 1022.2 hPa SW 16.1 km/h 25.7 km/h 67 % 0 mm 274 W/m2
11:16 15.3 °C 9.2 °C 1022.2 hPa SW 16.1 km/h 32.2 km/h 67 % 0 mm 360 W/m2
11:21 15.4 °C 9.5 °C 1022.2 hPa SSW 17.7 km/h 35.4 km/h 68 % 0 mm 742 W/m2
11:26 15.9 °C 10 °C 1022.2 hPa SSW 19.3 km/h 35.4 km/h 68 % 0 mm 1014 W/m2
11:31 16.1 °C 9.5 °C 1022.2 hPa SSW 20.9 km/h 33.8 km/h 65 % 0 mm 904 W/m2
11:36 16.2 °C 9.6 °C 1022.2 hPa SSW 19.3 km/h 33.8 km/h 65 % 0 mm 872 W/m2
11:41 16.4 °C 9.8 °C 1022.2 hPa SW 16.1 km/h 32.2 km/h 65 % 0 mm 738 W/m2
11:46 16.3 °C 9.5 °C 1022.2 hPa SSW 16.1 km/h 25.7 km/h 64 % 0 mm 399 W/m2
11:51 16.2 °C 9.2 °C 1022.2 hPa SW 16.1 km/h 30.6 km/h 63 % 0 mm 517 W/m2
11:56 16.2 °C 9.2 °C 1022.2 hPa SW 16.1 km/h 30.6 km/h 63 % 0 mm 364 W/m2
12:01 16.3 °C 9.5 °C 1022.2 hPa SW 14.5 km/h 24.1 km/h 64 % 0 mm 455 W/m2
12:06 16.3 °C 9.5 °C 1022.2 hPa SW 14.5 km/h 24.1 km/h 64 % 0 mm 448 W/m2
12:11 16.3 °C 9.5 °C 1021.9 hPa SSW 14.5 km/h 29 km/h 64 % 0 mm 448 W/m2
12:16 16.6 °C 9.1 °C 1022.2 hPa SW 16.1 km/h 29 km/h 61 % 0 mm 988 W/m2
12:21 16.9 °C 9.1 °C 1021.9 hPa SSW 16.1 km/h 30.6 km/h 60 % 0 mm 824 W/m2
12:26 16.9 °C 9.3 °C 1022.2 hPa SSW 16.1 km/h 30.6 km/h 61 % 0 mm 343 W/m2
12:31 16.6 °C 8.8 °C 1022.2 hPa SSW 17.7 km/h 33.8 km/h 60 % 0 mm 367 W/m2
12:36 16.4 °C 8.8 °C 1022.2 hPa SSW 17.7 km/h 33.8 km/h 61 % 0 mm 418 W/m2
12:41 16.5 °C 9.2 °C 1022.2 hPa SSW 17.7 km/h 33.8 km/h 62 % 0 mm 429 W/m2
12:46 16.4 °C 9.1 °C 1022.2 hPa SSW 17.7 km/h 33.8 km/h 62 % 0 mm 388 W/m2
12:51 16.4 °C 9.1 °C 1022.2 hPa SW 17.7 km/h 32.2 km/h 62 % 0 mm 457 W/m2
12:56 16.4 °C 9.3 °C 1022.2 hPa SW 17.7 km/h 32.2 km/h 63 % 0 mm 446 W/m2
13:01 16.4 °C 9.6 °C 1022.2 hPa SW 17.7 km/h 25.7 km/h 64 % 0 mm 633 W/m2
13:06 16.6 °C 9.3 °C 1022.2 hPa SSW 17.7 km/h 33.8 km/h 62 % 0 mm 577 W/m2
13:11 16.6 °C 8.8 °C 1021.9 hPa SSW 17.7 km/h 33.8 km/h 60 % 0 mm 462 W/m2
13:16 16.7 °C 9.1 °C 1021.9 hPa SSW 14.5 km/h 25.7 km/h 61 % 0 mm 434 W/m2
13:21 16.8 °C 9.2 °C 1021.9 hPa SW 16.1 km/h 33.8 km/h 61 % 0 mm 381 W/m2
13:26 16.7 °C 8.7 °C 1022.2 hPa SW 17.7 km/h 33.8 km/h 59 % 0 mm 362 W/m2
13:31 16.4 °C 8.4 °C 1022.2 hPa SW 17.7 km/h 32.2 km/h 59 % 0 mm 397 W/m2
13:36 16.4 °C 8.6 °C 1021.9 hPa SSW 17.7 km/h 32.2 km/h 60 % 0 mm 308 W/m2
13:41 16.4 °C 8.6 °C 1022.2 hPa SW 17.7 km/h 32.2 km/h 60 % 0 mm 339 W/m2
13:46 16.4 °C 8.8 °C 1022.2 hPa SW 16.1 km/h 30.6 km/h 61 % 0 mm 290 W/m2
13:51 16.3 °C 8.8 °C 1021.9 hPa SW 17.7 km/h 33.8 km/h 61 % 0 mm 301 W/m2
13:56 16.3 °C 9 °C 1021.9 hPa SW 17.7 km/h 33.8 km/h 62 % 0 mm 380 W/m2
14:01 16.2 °C 9.2 °C 1021.9 hPa SW 14.5 km/h 30.6 km/h 63 % 0 mm 642 W/m2
14:06 16.6 °C 9.5 °C 1021.9 hPa SSW 12.9 km/h 30.6 km/h 63 % 0 mm 608 W/m2
14:11 16.8 °C 9 °C 1021.9 hPa SSW 12.9 km/h 24.1 km/h 60 % 0 mm 543 W/m2
14:12 16.9 °C 9.1 °C 1021.9 hPa SSW 12.9 km/h 24.1 km/h 60 % 0 mm 543 W/m2
14:17 16.8 °C 9 °C 1021.9 hPa SSW 14.5 km/h 29 km/h 60 % 0 mm 534 W/m2
14:22 17 °C 9.2 °C 1021.9 hPa SSW 12.9 km/h 29 km/h 60 % 0 mm 461 W/m2
14:27 17 °C 9.4 °C 1021.9 hPa SW 12.9 km/h 20.9 km/h 61 % 0 mm 362 W/m2
14:32 16.9 °C 9.3 °C 1021.9 hPa SW 11.3 km/h 17.7 km/h 61 % 0 mm 272 W/m2
14:37 16.8 °C 9.2 °C 1021.9 hPa SW 9.7 km/h 17.7 km/h 61 % 0 mm 262 W/m2
14:42 16.9 °C 9.6 °C 1021.9 hPa SW 9.7 km/h 19.3 km/h 62 % 0 mm 334 W/m2
14:47 16.9 °C 9.6 °C 1021.9 hPa SW 9.7 km/h 19.3 km/h 62 % 0 mm 425 W/m2
14:52 17.1 °C 9.5 °C 1021.9 hPa SW 11.3 km/h 25.7 km/h 61 % 0 mm 357 W/m2
14:57 17 °C 9.2 °C 1021.6 hPa SSW 12.9 km/h 25.7 km/h 60 % 0 mm 438 W/m2
15:02 17 °C 9.2 °C 1021.6 hPa SSW 14.5 km/h 25.7 km/h 60 % 0 mm 448 W/m2
15:07 17.1 °C 8.8 °C 1021.6 hPa SSW 14.5 km/h 24.1 km/h 58 % 0 mm 327 W/m2
15:12 17.2 °C 9.4 °C 1021.6 hPa SW 12.9 km/h 24.1 km/h 60 % 0 mm 327 W/m2
15:17 17.3 °C 9.2 °C 1021.6 hPa SW 12.9 km/h 22.5 km/h 59 % 0 mm 396 W/m2
15:22 17.3 °C 9.4 °C 1021.6 hPa SW 12.9 km/h 22.5 km/h 60 % 0 mm 295 W/m2
15:27 17.3 °C 9.4 °C 1021.6 hPa SSW 11.3 km/h 20.9 km/h 60 % 0 mm 241 W/m2
15:32 17.1 °C 9.3 °C 1021.6 hPa SSW 12.9 km/h 20.9 km/h 60 % 0 mm 257 W/m2
15:37 16.9 °C 9.3 °C 1021.6 hPa SSW 12.9 km/h 19.3 km/h 61 % 0 mm 399 W/m2
15:39 16.9 °C 9.3 °C 1021.6 hPa South 11.3 km/h 19.3 km/h 61 % 0 mm 429 W/m2
15:44 17.1 °C 9.8 °C 1021.2 hPa SSW 9.7 km/h 17.7 km/h 62 % 0 mm 439 W/m2
15:49 17.3 °C 9.9 °C 1021.2 hPa SSW 8 km/h 16.1 km/h 62 % 0 mm 327 W/m2
15:54 17.5 °C 9.9 °C 1021.2 hPa SW 9.7 km/h 17.7 km/h 61 % 0 mm 392 W/m2
15:59 17.7 °C 9.8 °C 1021.2 hPa SSW 11.3 km/h 19.3 km/h 60 % 0 mm 889 W/m2
16:04 17.8 °C 9.2 °C 1020.9 hPa SSW 12.9 km/h 29 km/h 57 % 0 mm 807 W/m2
16:09 17.9 °C 9.8 °C 1021.2 hPa South 14.5 km/h 29 km/h 59 % 0 mm 265 W/m2
16:14 17.9 °C 9 °C 1020.9 hPa South 14.5 km/h 24.1 km/h 56 % 0 mm 285 W/m2
16:19 18.1 °C 9.4 °C 1020.9 hPa South 12.9 km/h 20.9 km/h 57 % 0 mm 759 W/m2
16:24 18.3 °C 9.4 °C 1020.9 hPa SSW 12.9 km/h 24.1 km/h 56 % 0 mm 729 W/m2
16:29 18.1 °C 9.2 °C 1020.9 hPa SSW 12.9 km/h 24.1 km/h 56 % 0 mm 214 W/m2
16:34 17.8 °C 9.2 °C 1020.9 hPa SSW 11.3 km/h 24.1 km/h 57 % 0 mm 178 W/m2
16:39 17.6 °C 9.2 °C 1020.9 hPa SSW 11.3 km/h 20.9 km/h 58 % 0 mm 241 W/m2
16:44 17.5 °C 9.2 °C 1020.9 hPa SSW 11.3 km/h 20.9 km/h 58 % 0 mm 679 W/m2
16:45 17.5 °C 9.2 °C 1020.9 hPa SSW 11.3 km/h 20.9 km/h 58 % 0 mm 677 W/m2
16:50 17.8 °C 9.2 °C 1020.5 hPa SSW 12.9 km/h 22.5 km/h 57 % 0 mm 573 W/m2
16:55 17.9 °C 9 °C 1020.5 hPa SSE 12.9 km/h 22.5 km/h 56 % 0 mm 276 W/m2
17:00 17.9 °C 9.3 °C 1020.5 hPa SSE 12.9 km/h 22.5 km/h 57 % 0 mm 214 W/m2
17:05 17.9 °C 9.5 °C 1020.5 hPa South 11.3 km/h 20.9 km/h 58 % 0 mm 174 W/m2
17:10 17.8 °C 9.2 °C 1020.5 hPa South 9.7 km/h 17.7 km/h 57 % 0 mm 193 W/m2
17:15 17.8 °C 9.2 °C 1020.5 hPa South 9.7 km/h 20.9 km/h 57 % 0 mm 596 W/m2
17:20 17.9 °C 8.7 °C 1020.5 hPa South 11.3 km/h 24.1 km/h 55 % 0 mm 229 W/m2
17:25 17.8 °C 9.2 °C 1020.5 hPa South 12.9 km/h 25.7 km/h 57 % 0 mm 244 W/m2
17:30 17.8 °C 9.4 °C 1020.5 hPa South 12.9 km/h 25.7 km/h 58 % 0 mm 163 W/m2
17:35 17.6 °C 9.5 °C 1020.5 hPa South 12.9 km/h 25.7 km/h 59 % 0 mm 174 W/m2
17:40 17.4 °C 9.3 °C 1020.5 hPa South 12.9 km/h 24.1 km/h 59 % 0 mm 172 W/m2
17:45 17.4 °C 9.1 °C 1020.5 hPa South 9.7 km/h 17.7 km/h 58 % 0 mm 142 W/m2
17:50 17.3 °C 8.9 °C 1020.5 hPa South 11.3 km/h 29 km/h 58 % 0 mm 167 W/m2
17:55 17.3 °C 8.7 °C 1020.5 hPa South 14.5 km/h 29 km/h 57 % 0 mm 415 W/m2
18:00 17.3 °C 8.7 °C 1020.5 hPa South 14.5 km/h 24.1 km/h 57 % 0 mm 188 W/m2
18:06 17.2 °C 8.6 °C 1020.2 hPa SSW 14.5 km/h 30.6 km/h 57 % 0 mm 385 W/m2
18:08 17.3 °C 8.9 °C 1020.2 hPa SSW 14.5 km/h 30.6 km/h 58 % 0 mm 392 W/m2
18:13 17.4 °C 9.1 °C 1020.2 hPa SSW 12.9 km/h 24.1 km/h 58 % 0 mm 362 W/m2
18:18 17.6 °C 9 °C 1020.2 hPa South 12.9 km/h 24.1 km/h 57 % 0 mm 329 W/m2
18:23 17.7 °C 8.8 °C 1019.9 hPa South 12.9 km/h 25.7 km/h 56 % 0 mm 339 W/m2
18:28 17.6 °C 8.2 °C 1020.2 hPa South 12.9 km/h 25.7 km/h 54 % 0 mm 278 W/m2
18:33 17.4 °C 8.3 °C 1020.2 hPa SSW 12.9 km/h 25.7 km/h 55 % 0 mm 144 W/m2
18:39 17.4 °C 8.5 °C 1019.9 hPa SSW 9.7 km/h 19.3 km/h 56 % 0 mm 190 W/m2
18:44 17.5 °C 8.3 °C 1019.9 hPa South 8 km/h 16.1 km/h 55 % 0 mm 127 W/m2
18:49 17.4 °C 8.5 °C 1019.9 hPa South 11.3 km/h 20.9 km/h 56 % 0 mm 109 W/m2
18:54 17.3 °C 8.7 °C 1019.9 hPa South 11.3 km/h 20.9 km/h 57 % 0 mm 123 W/m2
18:59 17.2 °C 8.6 °C 1019.9 hPa SSE 9.7 km/h 24.1 km/h 57 % 0 mm 116 W/m2
19:04 17.1 °C 8.5 °C 1019.9 hPa SSE 12.9 km/h 24.1 km/h 57 % 0 mm 114 W/m2
19:09 16.9 °C 8.6 °C 1019.9 hPa SSE 11.3 km/h 19.3 km/h 58 % 0 mm 128 W/m2
19:14 16.8 °C 8.5 °C 1019.9 hPa South 8 km/h 19.3 km/h 58 % 0 mm 153 W/m2
19:19 16.8 °C 8.7 °C 1019.9 hPa SSE 9.7 km/h 19.3 km/h 59 % 0 mm 158 W/m2
19:24 16.9 °C 8.6 °C 1019.9 hPa SSE 8 km/h 17.7 km/h 58 % 0 mm 156 W/m2
19:29 16.9 °C 8.8 °C 1019.9 hPa SE 8 km/h 16.1 km/h 59 % 0 mm 128 W/m2
19:34 16.9 °C 8.8 °C 1019.9 hPa SSE 8 km/h 16.1 km/h 59 % 0 mm 88 W/m2
19:39 16.9 °C 9.1 °C 1019.9 hPa SSE 6.4 km/h 14.5 km/h 60 % 0 mm 86 W/m2
19:44 16.9 °C 9.1 °C 1019.5 hPa SSE 8 km/h 16.1 km/h 60 % 0 mm 77 W/m2
19:49 16.8 °C 9.2 °C 1019.5 hPa SE 9.7 km/h 19.3 km/h 61 % 0 mm 83 W/m2
19:54 16.7 °C 9.1 °C 1019.5 hPa SE 11.3 km/h 19.3 km/h 61 % 0 mm 69 W/m2
20:04 16.4 °C 9.1 °C 1019.5 hPa SE 8 km/h 16.1 km/h 62 % 0 mm 53 W/m2
20:09 16.4 °C 9.1 °C 1019.5 hPa SE 8 km/h 12.9 km/h 62 % 0 mm 47 W/m2
20:14 16.3 °C 9.2 °C 1019.5 hPa SE 6.4 km/h 12.9 km/h 63 % 0 mm 42 W/m2
20:19 16.1 °C 9.3 °C 1019.5 hPa ESE 6.4 km/h 11.3 km/h 64 % 0 mm 39 W/m2
20:24 16 °C 9.4 °C 1019.5 hPa SE 4.8 km/h 11.3 km/h 65 % 0 mm 35 W/m2
20:29 15.8 °C 9.4 °C 1019.5 hPa SE 6.4 km/h 12.9 km/h 66 % 0 mm 32 W/m2
20:34 15.7 °C 9.4 °C 1019.5 hPa SE 6.4 km/h 12.9 km/h 66 % 0 mm 26 W/m2
20:39 15.6 °C 9.5 °C 1019.5 hPa SE 6.4 km/h 9.7 km/h 67 % 0 mm 23 W/m2
20:44 15.4 °C 9.5 °C 1019.5 hPa SE 4.8 km/h 9.7 km/h 68 % 0 mm 18 W/m2
20:49 15.2 °C 9.6 °C 1019.5 hPa SE 3.2 km/h 9.7 km/h 69 % 0 mm 14 W/m2
20:54 15.1 °C 9.4 °C 1019.5 hPa SE 3.2 km/h 9.7 km/h 69 % 0 mm 11 W/m2
20:59 14.9 °C 9.5 °C 1019.9 hPa SE 3.2 km/h 8 km/h 70 % 0 mm 7 W/m2
21:04 14.7 °C 9.5 °C 1019.5 hPa SE 3.2 km/h 8 km/h 71 % 0 mm 5 W/m2
21:09 14.5 °C 9.3 °C 1019.5 hPa SE 1.6 km/h 6.4 km/h 71 % 0 mm 0 W/m2
21:14 14.3 °C 9.3 °C 1019.5 hPa SE 1.6 km/h 4.8 km/h 72 % 0 mm 0 W/m2
21:19 14.1 °C 9.3 °C 1019.5 hPa SE 1.6 km/h 3.2 km/h 73 % 0 mm 0 W/m2
21:24 13.9 °C 9.3 °C 1019.5 hPa SE 1.6 km/h 6.4 km/h 74 % 0 mm 0 W/m2
21:30 13.8 °C 9.2 °C 1019.5 hPa SE 1.6 km/h 6.4 km/h 74 % 0 mm 0 W/m2
21:35 13.6 °C 9.2 °C 1019.5 hPa SE 3.2 km/h 6.4 km/h 75 % 0 mm 0 W/m2
21:40 13.5 °C 9.2 °C 1019.5 hPa ESE 3.2 km/h 8 km/h 75 % 0 mm 0 W/m2
21:45 13.4 °C 9.1 °C 1019.9 hPa ESE 4.8 km/h 9.7 km/h 75 % 0 mm 0 W/m2
21:50 13.3 °C 9.2 °C 1019.9 hPa ESE 4.8 km/h 9.7 km/h 76 % 0 mm 0 W/m2
21:55 13.2 °C 9.1 °C 1019.9 hPa ESE 3.2 km/h 9.7 km/h 76 % 0 mm 0 W/m2
22:00 13.1 °C 8.9 °C 1019.9 hPa ESE 1.6 km/h 6.4 km/h 76 % 0 mm 0 W/m2
22:05 12.9 °C 8.9 °C 1019.9 hPa Calm   3.2 km/h 77 % 0 mm 0 W/m2
22:10 12.8 °C 8.9 °C 1019.5 hPa Calm   3.2 km/h 77 % 0 mm 0 W/m2
22:15 12.6 °C 8.7 °C 1019.5 hPa Calm     77 % 0 mm 0 W/m2
22:20 12.4 °C 8.7 °C 1019.5 hPa Calm     78 % 0 mm 0 W/m2
22:25 12.2 °C 8.7 °C 1019.5 hPa Calm     79 % 0 mm 0 W/m2
22:30 12.1 °C 8.6 °C 1019.5 hPa Calm   1.6 km/h 79 % 0 mm 0 W/m2
22:35 11.9 °C 8.6 °C 1019.5 hPa Calm   1.6 km/h 80 % 0 mm 0 W/m2
22:40 11.7 °C 8.4 °C 1019.5 hPa Calm     80 % 0 mm 0 W/m2
22:45 11.6 °C 8.4 °C 1019.5 hPa Calm     81 % 0 mm 0 W/m2
22:50 11.4 °C 8.3 °C 1019.5 hPa Calm     81 % 0 mm 0 W/m2
22:55 11.3 °C 8.3 °C 1019.5 hPa Calm     82 % 0 mm 0 W/m2
23:00 11.1 °C 8.3 °C 1019.5 hPa Calm     83 % 0 mm 0 W/m2
23:05 11 °C 8.2 °C 1019.5 hPa Calm     83 % 0 mm 0 W/m2
23:10 10.9 °C 8.3 °C 1019.5 hPa Calm     84 % 0 mm 0 W/m2
23:15 10.8 °C 8.2 °C 1019.5 hPa Calm     84 % 0 mm 0 W/m2
23:20 10.7 °C 8.1 °C 1019.5 hPa Calm     84 % 0 mm 0 W/m2
23:25 10.6 °C 8 °C 1019.5 hPa Calm     84 % 0 mm 0 W/m2
23:31 10.4 °C 8 °C 1019.5 hPa Calm   6.4 km/h 85 % 0 mm 0 W/m2
23:36 10.3 °C 8.1 °C 1019.5 hPa Calm   6.4 km/h 86 % 0 mm 0 W/m2
23:41 10.3 °C 8.1 °C 1019.5 hPa ESE 1.6 km/h 8 km/h 86 % 0 mm 0 W/m2
23:46 10.3 °C 8.2 °C 1019.5 hPa ESE 1.6 km/h 8 km/h 87 % 0 mm 0 W/m2
23:51 10.3 °C 8.2 °C 1019.2 hPa ESE 1.6 km/h 8 km/h 87 % 0 mm 0 W/m2
23:56 10.3 °C 8.2 °C 1019.2 hPa ESE 1.6 km/h 8 km/h 87 % 0 mm 0 W/m2
Delerius-Weather
Compliments of Weather Underground - 2.25 mb

Data updates at regular intervals.